createdAt,value
2018-03-09T00:01:21.877Z,4.72
2018-03-09T00:03:49.045Z,4.18
2018-03-09T00:06:15.647Z,4.15
2018-03-09T00:08:42.533Z,3.97
2018-03-09T00:11:08.734Z,5.20
2018-03-09T00:13:34.940Z,6.03
2018-03-09T00:16:01.162Z,7.30
2018-03-09T00:18:27.401Z,9.15
2018-03-09T00:20:53.632Z,7.60
2018-03-09T00:23:19.881Z,6.50
2018-03-09T00:25:46.114Z,9.00
2018-03-09T00:28:12.317Z,10.32
2018-03-09T00:30:38.534Z,8.98
2018-03-09T00:33:04.781Z,8.05
2018-03-09T00:35:30.997Z,9.63
2018-03-09T00:37:57.221Z,8.10
2018-03-09T00:40:23.439Z,7.70
2018-03-09T00:42:50.556Z,5.50
2018-03-09T00:45:16.757Z,6.00
2018-03-09T00:47:43.024Z,5.90
2018-03-09T00:50:09.339Z,4.93
2018-03-09T00:52:35.610Z,5.10
2018-03-09T00:55:01.838Z,4.78
2018-03-09T00:57:28.482Z,4.05
2018-03-09T00:59:54.701Z,4.35
2018-03-09T01:02:21.917Z,4.22
2018-03-09T01:04:48.191Z,4.30
2018-03-09T01:07:14.368Z,5.53
2018-03-09T01:09:40.601Z,4.70
2018-03-09T01:12:06.795Z,4.47
2018-03-09T01:14:33.413Z,3.67
2018-03-09T01:16:59.644Z,4.37
2018-03-09T01:19:25.895Z,3.85
2018-03-09T01:21:52.098Z,3.25
2018-03-09T01:24:18.313Z,3.50
2018-03-09T01:26:45.516Z,3.22
2018-03-09T01:29:11.710Z,3.50
2018-03-09T01:31:37.954Z,4.30
2018-03-09T01:34:04.534Z,4.10
2018-03-09T01:36:30.768Z,3.15
2018-03-09T01:38:56.986Z,4.03
2018-03-09T01:41:23.189Z,3.65
2018-03-09T01:43:49.430Z,3.55
2018-03-09T01:46:15.639Z,4.03
2018-03-09T01:48:41.816Z,4.62
2018-03-09T01:51:08.041Z,4.68
2018-03-09T01:53:35.159Z,3.85
2018-03-09T01:56:01.384Z,4.28
2018-03-09T01:58:27.595Z,3.65
2018-03-09T02:00:53.810Z,4.05
2018-03-09T02:03:20.454Z,4.15
2018-03-09T02:05:46.725Z,3.58
2018-03-09T02:08:12.911Z,3.72
2018-03-09T02:10:39.499Z,4.10
2018-03-09T02:13:05.714Z,3.85
2018-03-09T02:15:31.939Z,4.00
2018-03-09T02:17:58.201Z,4.53
2018-03-09T02:20:24.413Z,3.58
2018-03-09T02:22:50.624Z,3.70
2018-03-09T02:25:16.848Z,3.42
2018-03-09T02:27:43.037Z,3.58
2018-03-09T02:30:09.659Z,4.20
2018-03-09T02:32:36.280Z,3.65
2018-03-09T02:35:02.513Z,3.83
2018-03-09T02:37:28.702Z,3.85
2018-03-09T02:39:54.928Z,4.45
2018-03-09T02:42:21.122Z,4.43
2018-03-09T02:44:47.350Z,4.50
2018-03-09T02:47:13.610Z,3.90
2018-03-09T02:49:39.809Z,4.05
2018-03-09T02:52:06.043Z,4.60
2018-03-09T02:54:32.547Z,4.37
2018-03-09T02:56:58.766Z,3.70
2018-03-09T02:59:24.954Z,3.90
2018-03-09T03:01:51.157Z,3.20
2018-03-09T03:04:17.390Z,4.20
2018-03-09T03:06:43.576Z,3.95
2018-03-09T03:09:09.777Z,3.80
2018-03-09T03:11:35.998Z,3.37
2018-03-09T03:14:02.224Z,4.00
2018-03-09T03:16:28.460Z,4.00
2018-03-09T03:18:54.698Z,3.83
2018-03-09T03:21:20.941Z,3.62
2018-03-09T03:23:47.158Z,3.62
2018-03-09T03:26:13.367Z,3.90
2018-03-09T03:28:39.588Z,3.53
2018-03-09T03:31:05.801Z,3.83
2018-03-09T03:33:32.018Z,3.75
2018-03-09T03:35:58.238Z,3.58
2018-03-09T03:38:25.513Z,3.85
2018-03-09T03:40:52.058Z,4.03
2018-03-09T03:43:18.287Z,3.53
2018-03-09T03:45:44.525Z,3.62
2018-03-09T03:48:10.727Z,3.60
2018-03-09T03:50:36.956Z,3.80
2018-03-09T03:53:03.173Z,2.92
2018-03-09T03:55:29.376Z,2.95
2018-03-09T03:57:55.606Z,3.62
2018-03-09T04:00:21.825Z,3.22
2018-03-09T04:02:48.056Z,3.72
2018-03-09T04:05:14.265Z,3.75
2018-03-09T04:07:40.464Z,3.45
2018-03-09T04:10:06.656Z,2.58
2018-03-09T04:12:33.251Z,3.08
2018-03-09T04:14:59.441Z,3.17
2018-03-09T04:17:25.662Z,2.92
2018-03-09T04:19:51.912Z,2.70
2018-03-09T04:22:18.119Z,3.20
2018-03-09T04:24:44.341Z,3.35
2018-03-09T04:27:10.532Z,3.10
2018-03-09T04:29:36.705Z,2.75
2018-03-09T04:32:02.930Z,3.33
2018-03-09T04:34:29.162Z,3.03
2018-03-09T04:36:55.380Z,3.40
2018-03-09T04:39:21.950Z,2.75
2018-03-09T04:41:48.206Z,3.30
2018-03-09T04:44:14.375Z,3.40
2018-03-09T04:46:40.556Z,3.25
2018-03-09T04:49:06.759Z,3.65
2018-03-09T04:51:32.951Z,3.35
2018-03-09T04:53:59.515Z,3.75
2018-03-09T04:56:25.736Z,3.28
2018-03-09T04:58:51.938Z,4.00
2018-03-09T05:01:18.138Z,3.87
2018-03-09T05:03:44.333Z,3.70
2018-03-09T05:06:10.552Z,2.90
2018-03-09T05:08:37.330Z,3.22
2018-03-09T05:11:03.980Z,4.12
2018-03-09T05:13:30.186Z,5.55
2018-03-09T05:15:56.394Z,3.85
2018-03-09T05:18:23.062Z,3.40
2018-03-09T05:20:49.270Z,3.60
2018-03-09T05:23:15.506Z,3.92
2018-03-09T05:25:41.717Z,4.00
2018-03-09T05:28:07.956Z,3.20
2018-03-09T05:30:34.178Z,3.72
2018-03-09T05:33:00.387Z,4.00
2018-03-09T05:35:26.590Z,3.42
2018-03-09T05:37:52.801Z,3.47
2018-03-09T05:40:19.405Z,3.65
2018-03-09T05:42:45.592Z,3.25
2018-03-09T05:45:11.827Z,4.00
2018-03-09T05:47:38.372Z,4.05
2018-03-09T05:50:04.613Z,3.97
2018-03-09T05:52:30.805Z,4.10
2018-03-09T05:54:57.395Z,3.80
2018-03-09T05:57:23.700Z,3.90
2018-03-09T05:59:50.268Z,3.90
2018-03-09T06:02:16.525Z,4.10
2018-03-09T06:04:42.741Z,4.22
2018-03-09T06:07:08.959Z,4.03
2018-03-09T06:09:35.156Z,4.07
2018-03-09T06:12:01.391Z,3.35
2018-03-09T06:14:27.611Z,3.90
2018-03-09T06:16:53.859Z,4.60
2018-03-09T06:19:20.887Z,4.40
2018-03-09T06:21:47.100Z,3.92
2018-03-09T06:24:13.349Z,4.68
2018-03-09T06:26:39.560Z,4.60
2018-03-09T06:29:05.761Z,4.28
2018-03-09T06:31:32.959Z,4.40
2018-03-09T06:33:59.170Z,4.28
2018-03-09T06:36:25.360Z,5.18
2018-03-09T06:38:51.593Z,5.20
2018-03-09T06:41:17.853Z,4.75
2018-03-09T06:43:44.060Z,4.87
2018-03-09T06:46:10.343Z,4.80
2018-03-09T06:48:36.570Z,4.28
2018-03-09T06:51:03.344Z,5.00
2018-03-09T06:53:29.555Z,5.15
2018-03-09T06:55:55.787Z,4.95
2018-03-09T06:58:21.989Z,4.25
2018-03-09T07:00:48.255Z,4.80
2018-03-09T07:03:14.881Z,4.82
2018-03-09T07:05:41.064Z,4.75
2018-03-09T07:08:07.313Z,4.78
2018-03-09T07:10:33.529Z,4.60
2018-03-09T07:12:59.762Z,3.95
2018-03-09T07:15:25.959Z,5.05
2018-03-09T07:17:52.202Z,5.12
2018-03-09T07:20:18.464Z,4.45
2018-03-09T07:22:44.651Z,4.45
2018-03-09T07:25:10.903Z,4.95
2018-03-09T07:27:37.146Z,5.47
2018-03-09T07:30:03.371Z,5.40
2018-03-09T07:32:29.600Z,5.87
2018-03-09T07:34:55.834Z,6.25
2018-03-09T07:37:22.058Z,5.55
2018-03-09T07:39:48.283Z,5.95
2018-03-09T07:42:14.482Z,5.15
2018-03-09T07:44:40.704Z,5.85
2018-03-09T07:47:06.923Z,5.43
2018-03-09T07:49:33.165Z,6.07
2018-03-09T07:51:59.374Z,6.12
2018-03-09T07:54:25.571Z,6.15
2018-03-09T07:56:52.169Z,6.28
2018-03-09T07:59:18.380Z,6.82
2018-03-09T08:01:44.555Z,5.72
2018-03-09T08:04:11.151Z,5.93
2018-03-09T08:06:37.339Z,5.78
2018-03-09T08:09:03.599Z,6.40
2018-03-09T08:11:29.867Z,4.50
2018-03-09T08:13:56.634Z,3.95
2018-03-09T08:16:22.896Z,4.80
2018-03-09T08:18:50.073Z,4.03
2018-03-09T08:21:16.317Z,3.53
2018-03-09T08:23:42.508Z,3.70
2018-03-09T08:26:08.742Z,4.15
2018-03-09T08:28:34.960Z,3.45
2018-03-09T08:31:01.246Z,3.95
2018-03-09T08:33:27.854Z,3.30
2018-03-09T08:35:54.097Z,3.80
2018-03-09T08:38:20.345Z,3.70
2018-03-09T08:40:46.570Z,4.28
2018-03-09T08:43:13.169Z,3.67
2018-03-09T08:45:39.409Z,3.58
2018-03-09T08:48:05.606Z,3.42
2018-03-09T08:50:31.815Z,3.50
2018-03-09T08:52:58.059Z,3.22
2018-03-09T08:55:24.256Z,3.17
2018-03-09T08:57:50.453Z,3.53
2018-03-09T09:00:16.968Z,3.30
2018-03-09T09:02:43.163Z,3.75
2018-03-09T09:05:09.404Z,3.50
2018-03-09T09:07:35.638Z,3.50
2018-03-09T09:10:01.951Z,4.12
2018-03-09T09:12:28.151Z,3.92
2018-03-09T09:14:55.188Z,4.50
2018-03-09T09:17:21.789Z,4.22
2018-03-09T09:19:48.056Z,3.60
2018-03-09T09:22:14.669Z,4.35
2018-03-09T09:24:40.861Z,4.43
2018-03-09T09:27:07.108Z,3.47
2018-03-09T09:29:33.331Z,2.87
2018-03-09T09:31:59.537Z,3.30
2018-03-09T09:34:25.746Z,3.62
2018-03-09T09:36:51.972Z,3.00
2018-03-09T09:39:18.182Z,3.60
2018-03-09T09:41:44.378Z,2.90
2018-03-09T09:44:11.137Z,3.75
2018-03-09T09:46:37.363Z,3.75
2018-03-09T09:49:03.575Z,3.35
2018-03-09T09:51:29.809Z,3.85
2018-03-09T09:53:56.047Z,3.50
2018-03-09T09:56:22.251Z,3.50
2018-03-09T09:58:48.874Z,3.20
2018-03-09T10:01:15.083Z,3.55
2018-03-09T10:03:41.318Z,3.15
2018-03-09T10:06:07.513Z,4.00
2018-03-09T10:08:34.075Z,3.45
2018-03-09T10:11:00.308Z,3.60
2018-03-09T10:13:26.531Z,4.03
2018-03-09T10:15:52.724Z,4.03
2018-03-09T10:18:19.736Z,4.25
2018-03-09T10:20:45.920Z,3.28
2018-03-09T10:23:12.145Z,3.83
2018-03-09T10:25:38.425Z,6.00
2018-03-09T10:28:04.647Z,3.47
2018-03-09T10:30:30.873Z,3.30
2018-03-09T10:32:57.059Z,3.37
2018-03-09T10:35:23.331Z,2.97
2018-03-09T10:37:49.563Z,3.40
2018-03-09T10:40:15.785Z,3.97
2018-03-09T10:42:42.044Z,3.35
2018-03-09T10:45:08.269Z,3.90
2018-03-09T10:47:34.782Z,4.07
2018-03-09T10:50:01.002Z,4.12
2018-03-09T10:52:27.184Z,3.72
2018-03-09T10:54:54.063Z,4.87
2018-03-09T10:57:20.253Z,5.78
2018-03-09T10:59:46.473Z,6.28
2018-03-09T11:02:13.068Z,2.95
2018-03-09T11:04:39.338Z,3.22
2018-03-09T11:07:05.997Z,3.78
2018-03-09T11:09:32.309Z,3.85
2018-03-09T11:11:58.515Z,3.55
2018-03-09T11:14:24.734Z,3.72
2018-03-09T11:16:50.976Z,3.35
2018-03-09T11:19:17.197Z,3.10
2018-03-09T11:21:43.428Z,3.40
2018-03-09T11:24:09.693Z,2.92
2018-03-09T11:26:35.916Z,3.50
2018-03-09T11:29:02.414Z,3.70
2018-03-09T11:31:28.644Z,3.15
2018-03-09T11:33:54.857Z,3.47
2018-03-09T11:36:21.118Z,3.65
2018-03-09T11:38:47.678Z,2.67
2018-03-09T11:41:13.877Z,2.90
2018-03-09T11:43:40.472Z,2.87
2018-03-09T11:46:06.725Z,2.70
2018-03-09T11:48:32.960Z,3.10
2018-03-09T11:50:59.781Z,3.00
2018-03-09T11:53:26.000Z,3.92
2018-03-09T11:55:52.212Z,4.00
2018-03-09T11:58:18.423Z,5.07
2018-03-09T12:00:45.127Z,3.87
2018-03-09T12:03:11.356Z,3.40
2018-03-09T12:05:37.543Z,2.70
2018-03-09T12:08:04.707Z,2.90
2018-03-09T12:10:30.958Z,3.60
2018-03-09T12:12:57.175Z,3.33
2018-03-09T12:15:23.493Z,3.30
2018-03-09T12:17:49.697Z,3.47
2018-03-09T12:20:15.925Z,3.80
2018-03-09T12:22:42.595Z,4.50
2018-03-09T12:25:08.826Z,3.70
2018-03-09T12:27:35.034Z,3.33
2018-03-09T12:30:01.707Z,2.70
2018-03-09T12:32:28.315Z,2.25
2018-03-09T12:34:54.569Z,3.65
2018-03-09T12:37:22.038Z,3.05
2018-03-09T12:39:48.644Z,2.62
2018-03-09T12:42:14.895Z,1.98
2018-03-09T12:44:41.391Z,2.05
2018-03-09T12:47:07.612Z,2.30
2018-03-09T12:49:33.816Z,2.65
2018-03-09T12:52:00.363Z,2.50
2018-03-09T12:54:26.580Z,2.37
2018-03-09T12:56:52.782Z,2.95
2018-03-09T12:59:19.444Z,2.60
2018-03-09T13:01:45.644Z,2.67
2018-03-09T13:04:11.863Z,3.20
2018-03-09T13:06:38.140Z,2.72
2018-03-09T13:09:04.385Z,2.78
2018-03-09T13:11:31.554Z,2.80
2018-03-09T13:14:00.858Z,2.78
2018-03-09T13:16:27.125Z,2.58
2018-03-09T13:18:53.395Z,2.45
2018-03-09T13:21:20.086Z,2.47
2018-03-09T13:23:46.693Z,2.57
2018-03-09T13:26:12.980Z,2.70
2018-03-09T13:28:39.232Z,2.80
2018-03-09T13:31:05.477Z,2.20
2018-03-09T13:33:31.721Z,2.97
2018-03-09T13:35:58.372Z,2.80
2018-03-09T13:38:24.972Z,2.67
2018-03-09T13:40:51.386Z,2.47
2018-03-09T13:43:18.217Z,2.43
2018-03-09T13:45:45.574Z,2.30
2018-03-09T13:48:12.207Z,2.53
2018-03-09T13:50:39.035Z,2.47
2018-03-09T13:53:06.028Z,2.10
2018-03-09T13:55:32.682Z,2.00
2018-03-09T13:57:59.597Z,2.00
2018-03-09T14:00:27.194Z,2.40
2018-03-09T14:02:54.593Z,2.00
2018-03-09T14:05:21.180Z,2.00
2018-03-09T14:07:47.424Z,2.20
2018-03-09T14:10:14.103Z,2.40
2018-03-09T14:12:41.402Z,2.50
2018-03-09T14:15:08.051Z,3.10
2018-03-09T14:17:37.149Z,2.30
2018-03-09T14:20:05.896Z,2.57
2018-03-09T14:22:33.094Z,3.00
2018-03-09T14:25:00.387Z,2.10
2018-03-09T14:27:28.564Z,2.53
2018-03-09T14:29:54.831Z,2.50
2018-03-09T14:32:21.097Z,2.37
2018-03-09T14:34:47.320Z,2.63
2018-03-09T14:37:13.567Z,2.37
2018-03-09T14:39:39.792Z,2.33
2018-03-09T14:42:05.992Z,2.47
2018-03-09T14:44:32.208Z,1.83
2018-03-09T14:46:58.459Z,2.73
2018-03-09T14:49:24.695Z,2.37
2018-03-09T14:51:50.941Z,2.33
2018-03-09T14:54:17.198Z,2.80
2018-03-09T14:56:43.791Z,2.93
2018-03-09T14:59:10.042Z,3.13
2018-03-09T15:01:36.317Z,2.70
2018-03-09T15:04:02.546Z,2.53
2018-03-09T15:06:28.790Z,2.60
2018-03-09T15:08:55.033Z,2.27
2018-03-09T15:11:21.261Z,2.40
2018-03-09T15:13:47.461Z,2.10
2018-03-09T15:16:13.755Z,3.10
2018-03-09T15:18:40.136Z,2.67
2018-03-09T15:21:06.393Z,2.50
2018-03-09T15:23:32.699Z,2.22
2018-03-09T15:25:58.899Z,2.20
2018-03-09T15:28:25.160Z,3.55
2018-03-09T15:30:51.417Z,3.28
2018-03-09T15:33:20.561Z,2.50
2018-03-09T15:35:46.810Z,4.60
2018-03-09T15:38:13.380Z,2.80
2018-03-09T15:40:39.756Z,2.30
2018-03-09T15:43:05.911Z,2.20
2018-03-09T15:45:32.195Z,3.37
2018-03-09T15:47:58.430Z,3.00
2018-03-09T15:50:25.227Z,3.03
2018-03-09T15:52:51.459Z,2.42
2018-03-09T15:55:18.060Z,3.05
2018-03-09T15:57:44.315Z,2.37
2018-03-09T16:00:10.577Z,2.60
2018-03-09T16:02:36.809Z,3.20
2018-03-09T16:05:03.092Z,2.63
2018-03-09T16:07:29.383Z,2.90
2018-03-09T16:09:55.646Z,2.87
2018-03-09T16:12:21.882Z,2.60
2018-03-09T16:14:48.119Z,3.40
2018-03-09T16:17:14.395Z,2.50
2018-03-09T16:19:40.877Z,2.60
2018-03-09T16:22:07.184Z,3.30
2018-03-09T16:24:33.440Z,3.60
2018-03-09T16:26:59.703Z,4.60
2018-03-09T16:29:25.978Z,3.70
2018-03-09T16:31:52.221Z,3.50
2018-03-09T16:34:18.503Z,3.37
2018-03-09T16:36:44.770Z,5.07
2018-03-09T16:39:10.988Z,4.40
2018-03-09T16:41:37.509Z,5.07
2018-03-09T16:44:03.755Z,5.00
2018-03-09T16:46:30.024Z,5.00
2018-03-09T16:48:56.636Z,8.07
2018-03-09T16:51:22.869Z,7.40
2018-03-09T16:53:49.147Z,8.20
2018-03-09T16:56:15.422Z,12.13
2018-03-09T16:58:41.638Z,33.10
2018-03-09T17:01:07.891Z,23.42
2018-03-09T17:03:34.137Z,23.02
2018-03-09T17:06:00.368Z,15.70
2018-03-09T17:08:26.653Z,14.00
2018-03-09T17:10:53.212Z,5.12
2018-03-09T17:13:19.466Z,5.30
2018-03-09T17:15:45.807Z,4.10
2018-03-09T17:18:12.424Z,5.80
2018-03-09T17:20:39.969Z,5.85
2018-03-09T17:23:06.230Z,5.85
2018-03-09T17:25:32.515Z,5.70
2018-03-09T17:27:58.741Z,5.97
2018-03-09T17:30:24.989Z,5.93
2018-03-09T17:32:51.264Z,5.78
2018-03-09T17:35:17.547Z,6.40
2018-03-09T17:37:43.780Z,5.68
2018-03-09T17:40:10.069Z,4.43
2018-03-09T17:42:36.311Z,4.50
2018-03-09T17:45:03.163Z,6.10
2018-03-09T17:47:29.610Z,6.22
2018-03-09T17:49:55.810Z,4.57
2018-03-09T17:52:22.038Z,3.60
2018-03-09T17:54:48.687Z,4.35
2018-03-09T17:57:14.891Z,3.28
2018-03-09T17:59:41.116Z,4.03
2018-03-09T18:02:07.346Z,4.25
2018-03-09T18:04:33.598Z,3.97
2018-03-09T18:06:59.815Z,5.15
2018-03-09T18:09:26.718Z,3.67
2018-03-09T18:11:52.962Z,4.30
2018-03-09T18:14:19.188Z,4.80
2018-03-09T18:16:45.421Z,6.72
2018-03-09T18:19:11.664Z,7.03
2018-03-09T18:21:37.922Z,6.62
2018-03-09T18:24:04.125Z,7.43
2018-03-09T18:26:30.347Z,13.80
2018-03-09T18:28:56.592Z,15.02
2018-03-09T18:31:22.912Z,14.00
2018-03-09T18:33:49.196Z,15.43
2018-03-09T18:36:16.798Z,13.80
2018-03-09T18:38:43.068Z,11.27
2018-03-09T18:41:09.348Z,5.68
2018-03-09T18:43:35.591Z,4.70
2018-03-09T18:46:01.852Z,5.37
2018-03-09T18:48:28.510Z,5.03
2018-03-09T18:50:55.626Z,6.50
2018-03-09T18:53:21.844Z,5.10
2018-03-09T18:55:49.019Z,5.35
2018-03-09T18:58:15.632Z,4.15
2018-03-09T19:00:41.892Z,3.62
2018-03-09T19:03:08.533Z,5.22
2018-03-09T19:05:35.205Z,5.20
2018-03-09T19:08:01.467Z,5.47
2018-03-09T19:10:28.007Z,6.20
2018-03-09T19:12:54.210Z,6.05
2018-03-09T19:15:20.449Z,7.40
2018-03-09T19:17:46.691Z,9.70
2018-03-09T19:20:12.931Z,9.23
2018-03-09T19:22:39.149Z,7.70
2018-03-09T19:25:05.434Z,8.68
2018-03-09T19:27:31.731Z,8.15
2018-03-09T19:29:57.966Z,8.23
2018-03-09T19:32:24.579Z,8.13
2018-03-09T19:34:50.833Z,7.12
2018-03-09T19:37:17.111Z,6.85
2018-03-09T19:39:43.360Z,8.70
2018-03-09T19:42:09.630Z,8.65
2018-03-09T19:44:35.889Z,9.70
2018-03-09T19:47:02.170Z,6.20
2018-03-09T19:49:28.789Z,6.22
2018-03-09T19:51:55.449Z,5.45
2018-03-09T19:54:22.091Z,5.85
2018-03-09T19:56:48.709Z,5.40
2018-03-09T19:59:15.762Z,5.43
2018-03-09T20:01:43.414Z,5.72
2018-03-09T20:04:09.670Z,6.45
2018-03-09T20:06:35.976Z,6.68
2018-03-09T20:09:02.301Z,8.02
2018-03-09T20:11:28.541Z,11.75
2018-03-09T20:13:55.138Z,16.30
2018-03-09T20:16:21.415Z,14.80
2018-03-09T20:18:48.071Z,8.93
2018-03-09T20:21:14.426Z,6.30
2018-03-09T20:23:40.744Z,6.12
2018-03-09T20:26:07.028Z,5.25
2018-03-09T20:28:33.279Z,5.55
2018-03-09T20:30:59.550Z,4.95
2018-03-09T20:33:25.855Z,5.32
2018-03-09T20:35:52.102Z,4.93
2018-03-09T20:38:18.368Z,5.30
2018-03-09T20:40:44.607Z,7.40
2018-03-09T20:43:10.895Z,7.18
2018-03-09T20:45:37.188Z,5.75
2018-03-09T20:48:03.453Z,5.70
2018-03-09T20:50:29.682Z,6.10
2018-03-09T20:52:55.975Z,7.12
2018-03-09T20:55:22.265Z,8.63
2018-03-09T20:57:48.534Z,10.60
2018-03-09T21:00:14.795Z,9.68
2018-03-09T21:02:41.378Z,9.50
2018-03-09T21:05:08.038Z,7.50
2018-03-09T21:07:34.281Z,7.12
2018-03-09T21:10:00.534Z,8.70
2018-03-09T21:12:26.774Z,8.55
2018-03-09T21:14:53.014Z,7.95
2018-03-09T21:17:19.549Z,9.52
2018-03-09T21:19:45.787Z,10.57
2018-03-09T21:22:12.379Z,10.75
2018-03-09T21:24:38.976Z,7.95
2018-03-09T21:27:05.644Z,7.93
2018-03-09T21:29:31.957Z,7.00
2018-03-09T21:31:58.239Z,6.43
2018-03-09T21:34:24.469Z,8.20
2018-03-09T21:36:50.705Z,11.45
2018-03-09T21:39:16.968Z,15.10
2018-03-09T21:41:43.273Z,11.25
2018-03-09T21:44:09.882Z,12.95
2018-03-09T21:46:36.191Z,11.35
2018-03-09T21:49:02.439Z,11.80
2018-03-09T21:51:28.661Z,11.00
2018-03-09T21:53:54.912Z,10.40
2018-03-09T21:56:21.248Z,8.25
2018-03-09T21:58:48.334Z,8.93
2018-03-09T22:01:14.587Z,6.45
2018-03-09T22:03:40.846Z,6.47
2018-03-09T22:06:07.086Z,8.43
2018-03-09T22:08:33.363Z,8.70
2018-03-09T22:10:59.572Z,8.30
2018-03-09T22:13:25.793Z,7.70
2018-03-09T22:15:52.049Z,7.45
2018-03-09T22:18:18.282Z,6.85
2018-03-09T22:20:44.577Z,6.85
2018-03-09T22:23:10.821Z,7.57
2018-03-09T22:25:37.042Z,6.32
2018-03-09T22:28:03.629Z,7.18
2018-03-09T22:30:29.837Z,7.22
2018-03-09T22:32:56.087Z,6.70
2018-03-09T22:35:22.719Z,6.95
2018-03-09T22:37:48.943Z,6.87
2018-03-09T22:40:15.270Z,6.22
2018-03-09T22:42:41.498Z,6.45
2018-03-09T22:45:07.750Z,7.70
2018-03-09T22:47:34.019Z,6.97
2018-03-09T22:50:00.236Z,7.22
2018-03-09T22:52:26.422Z,6.40
2018-03-09T22:54:52.917Z,6.80
2018-03-09T22:57:19.127Z,7.50
2018-03-09T22:59:45.390Z,7.10
2018-03-09T23:02:11.651Z,8.38
2018-03-09T23:04:37.914Z,7.05
2018-03-09T23:07:04.743Z,8.30
2018-03-09T23:09:31.330Z,8.10
2018-03-09T23:11:57.542Z,8.15
2018-03-09T23:14:23.754Z,7.65
2018-03-09T23:16:50.831Z,7.97
2018-03-09T23:19:17.060Z,7.72
2018-03-09T23:21:43.286Z,8.18
2018-03-09T23:24:09.505Z,7.90
2018-03-09T23:26:35.727Z,7.95
2018-03-09T23:29:01.999Z,7.97
2018-03-09T23:31:28.646Z,7.68
2018-03-09T23:33:54.833Z,7.85
2018-03-09T23:36:21.062Z,6.78
2018-03-09T23:38:47.273Z,8.65
2018-03-09T23:41:13.544Z,7.47
2018-03-09T23:43:39.783Z,7.80
2018-03-09T23:46:06.000Z,7.60
2018-03-09T23:48:32.198Z,7.37
2018-03-09T23:50:58.446Z,6.82
2018-03-09T23:53:24.661Z,6.90
2018-03-09T23:55:50.848Z,7.35
2018-03-09T23:58:17.456Z,7.68
